Terminal Aerodrome Forecast
Issued by NWS Wilmington, NC

Home | Current Version | Previous Version | Text Only | Print | Product List | Glossary On
Versions: 1 2 3 4 5 6 7 8 9 10 11 12 13 14 15 16 17 18 19
035
FTUS42 KILM 091128
TAFFLO
TAF
KFLO 091128Z 0912/1012 27010G22KT P6SM FEW120
     FM091400 27015G26KT P6SM OVC050
     FM100100 28008KT P6SM BKN100
     FM100800 28009KT P6SM SKC=

USA.gov is the U.S. government's official web portal to all federal, state and local government web resources and services.